Aérodrome :
LOGIN :

S'inscrire | Disclaimer

   EN    FR    IT 

 










Légende :    VFR   VFR Marginal   IFR   IFR Intensif   IFR Très Intensif
Visi : 
Plafond : 
>= 8 km
>= 3000ft
5 à 8 km
1000 à 3000 ft
1500m à 5 km
500 à 1000 ft
800 à 1500m
200 à 500 ft
< 800m
< 200 ft
Symboles :   Orages  Brouillard  Fortes neiges  Fortes précipitations  Vent > 20 kt
SIGMETs :   Divers  Orages  Givrage  Turbulence  Onde Orograph.  Cendres Volcan.







- Altitude de l'aérodrome : 1411 ft
- Code IATA : SZG


LOWS - Salzburg

DERNIER METAR :
  • 190320Z AUTO 14004KT 9999 -RA FEW034 BKN050 16/16 Q1019

METARs EXPIRÉS :
  • 190250Z AUTO 16005KT 7000 RA FEW036 SCT042 BKN048 17/16 Q1019
  • 190220Z AUTO 14003KT 100V180 9999 -RA FEW003 OVC048 17/16 Q1019
  • 190150Z AUTO VRB02KT 9999 RA FEW042 BKN050 17/16 Q1019
  • 190120Z AUTO VRB01KT 8000 RA FEW016 SCT022 BKN034 17/16 Q1019
  • 190050Z AUTO 10002KT 6000 RA FEW020 SCT026 BKN034 17/16 Q1019

TAF TAF LOWS
Valide du 19 à 00h jusqu'au 20 à 00h UTC


182315Z 1900/1924 33008KT 9999 -RA SCT060 BKN070 TX19/1900Z TN14/1924Z
TEMPO 1900/1913 8000 RA SCT020 BKN040
BECMG 1913/1915 NSW
TEMPO 1918/1924 -SHRA
Pas de NOTAMs connus pour ce terrain.



MET'MAP, la Météo Aéronautique d'un coup d'oeil ! - Copyright ORBIFLY Décembre 2007 - Disclaimer

ORBIFLY MET'MAP TEAM :

Programmation & Développement : Alexandra Zaïnal
Conception & Développement : Baudouin d'Aumeries
Co-Programmation & Développement : Marc-Olivier Méhu
Soutien technique & logistique : Manuel Goepfert

Contact : metmap@orbifly.com




SOURCES & CREDITS :

   NOAA